Time;durP1;ratioP1;P1;durP2;ratioP2;P2;SDS_P1;SDS_P2;PMS_P1;PMS_P2;Temp;Humidity;BMP_temperature;BMP_pressure;BME280_temperature;BME280_humidity;BME280_pressure;Samples;Min_cycle;Max_cycle;Signal;HPM_P1;HPM_P2
2022/07/08 00:01:08;;;;;;;2.55;2.33;;;15.10;99.90;;;;;;4970854;28;20094;-33
2022/07/08 00:03:33;;;;;;;8.55;2.83;;;15.10;99.90;;;;;;4970937;28;20037;-35
2022/07/08 00:05:59;;;;;;;2.67;2.30;;;15.10;99.90;;;;;;4969738;28;20029;-32
2022/07/08 00:08:27;;;;;;;3.90;2.30;;;15.10;99.90;;;;;;4970763;28;20034;-34
2022/07/08 00:10:53;;;;;;;2.57;2.37;;;15.10;99.90;;;;;;4971129;28;20027;-34
2022/07/08 00:13:18;;;;;;;3.22;1.90;;;15.10;99.90;;;;;;4970702;28;20435;-35
2022/07/08 00:15:44;;;;;;;2.78;2.58;;;15.10;99.90;;;;;;4971314;28;20038;-33
2022/07/08 00:18:10;;;;;;;2.58;2.38;;;15.10;99.90;;;;;;4970807;28;20034;-33
2022/07/08 00:20:36;;;;;;;2.78;2.58;;;15.10;99.90;;;;;;4970928;28;20106;-36
2022/07/08 00:23:02;;;;;;;2.25;2.00;;;15.20;99.90;;;;;;4970492;28;20030;-33
2022/07/08 00:25:27;;;;;;;2.58;2.10;;;15.10;99.90;;;;;;4970715;28;20046;-33
2022/07/08 00:27:53;;;;;;;3.20;2.42;;;15.10;99.90;;;;;;4969544;28;20089;-33
2022/07/08 00:30:19;;;;;;;3.85;2.40;;;15.10;99.90;;;;;;4969085;28;20038;-34
2022/07/08 00:32:44;;;;;;;2.67;2.35;;;15.10;99.90;;;;;;4970528;28;20034;-33
2022/07/08 00:35:10;;;;;;;4.75;2.30;;;15.10;99.90;;;;;;4969928;28;20042;-35
2022/07/08 00:37:35;;;;;;;2.42;2.13;;;15.00;99.90;;;;;;4971511;28;20631;-34
2022/07/08 00:40:02;;;;;;;3.55;2.30;;;15.10;99.90;;;;;;4969524;28;20074;-33
2022/07/08 00:42:28;;;;;;;2.47;2.22;;;15.10;99.90;;;;;;4968028;28;20062;-36
2022/07/08 00:44:54;;;;;;;3.13;2.35;;;15.10;99.90;;;;;;4976529;28;20102;-34
2022/07/08 00:47:19;;;;;;;2.42;2.22;;;15.10;99.90;;;;;;4971584;28;20038;-34
2022/07/08 00:49:45;;;;;;;2.47;2.25;;;15.10;99.90;;;;;;4976654;28;20026;-34
2022/07/08 00:52:11;;;;;;;4.20;2.53;;;15.10;99.90;;;;;;4984886;28;20462;-33
2022/07/08 00:54:37;;;;;;;14.73;2.63;;;15.10;99.90;;;;;;4976824;28;20037;-33
2022/07/08 00:57:03;;;;;;;2.40;2.20;;;15.00;99.90;;;;;;4980934;28;20046;-33
2022/07/08 00:59:29;;;;;;;3.88;2.53;;;15.00;99.90;;;;;;4976992;28;20475;-33
2022/07/08 01:01:54;;;;;;;4.68;2.38;;;15.10;99.90;;;;;;4979246;28;20117;-33
2022/07/08 01:04:20;;;;;;;2.85;2.25;;;15.00;99.90;;;;;;4976633;28;20502;-34
2022/07/08 01:06:46;;;;;;;2.35;2.15;;;15.00;99.90;;;;;;4962978;28;20057;-33
2022/07/08 01:09:14;;;;;;;2.50;2.30;;;15.10;99.90;;;;;;4975728;28;20027;-33
2022/07/08 01:11:49;;;;;;;;;;;15.10;99.90;;;;;;4980063;28;20034;-33
2022/07/08 01:14:15;;;;;;;4.47;2.20;;;15.00;99.90;;;;;;4974936;28;20278;-35
2022/07/08 01:16:41;;;;;;;2.40;2.22;;;15.00;99.90;;;;;;4977454;28;20117;-33
2022/07/08 01:19:07;;;;;;;2.65;2.38;;;15.10;99.90;;;;;;4976092;28;20114;-35
2022/07/08 01:21:33;;;;;;;2.67;2.47;;;15.10;99.90;;;;;;4977528;28;20034;-33
2022/07/08 01:23:58;;;;;;;6.05;2.70;;;15.10;99.90;;;;;;4981034;28;20574;-33
2022/07/08 01:26:24;;;;;;;2.45;2.25;;;15.00;99.90;;;;;;4974309;28;20110;-33
2022/07/08 01:28:50;;;;;;;3.88;2.28;;;15.00;99.90;;;;;;4977163;28;20022;-33
2022/07/08 01:31:16;;;;;;;3.45;2.40;;;15.00;99.90;;;;;;4973426;28;20101;-34
2022/07/08 01:33:41;;;;;;;2.67;2.47;;;15.00;99.90;;;;;;4977972;28;20031;-33
2022/07/08 01:36:07;;;;;;;2.70;2.50;;;15.00;99.90;;;;;;4975632;28;20090;-34
2022/07/08 01:38:33;;;;;;;4.05;2.78;;;15.10;99.90;;;;;;4977197;28;20123;-33
2022/07/08 01:40:59;;;;;;;3.15;2.88;;;15.10;99.90;;;;;;4976085;28;20130;-34
2022/07/08 01:43:25;;;;;;;3.20;2.50;;;15.10;99.90;;;;;;4976356;28;20471;-37
2022/07/08 01:45:51;;;;;;;3.25;2.55;;;15.00;99.90;;;;;;4976507;28;20054;-33
2022/07/08 01:48:16;;;;;;;2.42;2.03;;;14.90;99.90;;;;;;4981119;28;20784;-33
2022/07/08 01:50:42;;;;;;;3.53;1.70;;;14.80;99.90;;;;;;4973219;28;20396;-33
2022/07/08 01:53:08;;;;;;;4.63;1.45;;;14.60;99.90;;;;;;4976450;28;20452;-33
2022/07/08 01:55:33;;;;;;;4.47;1.70;;;14.50;99.90;;;;;;4973104;28;20034;-33
2022/07/08 01:57:59;;;;;;;1.80;1.42;;;14.20;99.90;;;;;;4973572;28;20034;-33
2022/07/08 02:00:25;;;;;;;3.13;1.40;;;14.10;99.90;;;;;;4954682;28;20066;-34
2022/07/08 02:02:50;;;;;;;2.05;1.50;;;14.10;99.90;;;;;;4973484;28;20023;-32
2022/07/08 02:05:16;;;;;;;3.75;1.63;;;14.10;99.90;;;;;;4972428;28;20054;-34
2022/07/08 02:07:42;;;;;;;1.92;1.40;;;14.00;99.90;;;;;;4972864;28;20026;-35
2022/07/08 02:10:09;;;;;;;1.55;1.30;;;14.00;99.90;;;;;;4972958;28;20035;-34
2022/07/08 02:12:35;;;;;;;3.83;1.45;;;14.00;99.90;;;;;;4974799;28;20049;-34
2022/07/08 02:15:04;;;;;;;4.15;1.73;;;14.00;99.90;;;;;;4976607;28;20130;-33
2022/07/08 02:17:35;;;;;;;3.50;1.45;;;14.00;99.90;;;;;;4973497;28;20094;-34
2022/07/08 02:20:03;;;;;;;5.45;1.48;;;13.90;99.90;;;;;;4976849;28;20475;-33
2022/07/08 02:22:28;;;;;;;1.90;1.50;;;14.00;99.90;;;;;;4972485;28;20054;-33
2022/07/08 02:24:54;;;;;;;2.47;1.40;;;14.00;99.90;;;;;;4972410;28;20102;-33
2022/07/08 02:27:20;;;;;;;3.10;1.70;;;14.00;99.90;;;;;;4972203;28;20018;-33
2022/07/08 02:29:46;;;;;;;2.35;1.52;;;14.00;99.90;;;;;;4974908;28;20047;-33
2022/07/08 02:32:11;;;;;;;2.30;1.50;;;14.00;99.90;;;;;;4971820;28;20046;-35
2022/07/08 02:34:37;;;;;;;3.60;1.38;;;14.00;99.90;;;;;;4974240;28;20034;-34
2022/07/08 02:37:03;;;;;;;2.95;1.50;;;13.80;99.90;;;;;;4972717;28;20029;-33
2022/07/08 02:39:29;;;;;;;5.50;1.88;;;13.70;99.90;;;;;;4974444;28;20039;-32
2022/07/08 02:41:55;;;;;;;3.17;1.45;;;13.70;99.90;;;;;;4972355;28;20027;-35
2022/07/08 02:44:20;;;;;;;2.80;1.42;;;13.70;99.90;;;;;;4973704;28;20023;-33
2022/07/08 02:46:46;;;;;;;3.33;1.40;;;13.80;99.90;;;;;;4971864;28;20089;-33
2022/07/08 02:49:12;;;;;;;4.00;1.40;;;13.80;99.90;;;;;;4974710;28;20097;-34
2022/07/08 02:51:38;;;;;;;5.20;1.58;;;13.80;99.90;;;;;;4970598;28;20037;-33
2022/07/08 02:54:05;;;;;;;3.90;1.33;;;13.80;99.90;;;;;;4974440;28;20085;-33
2022/07/08 02:56:32;;;;;;;2.03;1.42;;;13.80;99.90;;;;;;4972121;28;20616;-33
2022/07/08 02:58:59;;;;;;;3.35;1.80;;;13.80;99.90;;;;;;4973473;28;20018;-35
2022/07/08 03:01:25;;;;;;;3.55;1.23;;;13.70;99.90;;;;;;4971088;28;20035;-34
2022/07/08 03:03:51;;;;;;;3.55;1.58;;;13.60;99.90;;;;;;4973128;28;20026;-35
2022/07/08 03:06:16;;;;;;;3.67;1.70;;;13.70;99.90;;;;;;4970878;28;20391;-34
2022/07/08 03:08:42;;;;;;;5.18;1.40;;;13.70;99.90;;;;;;4972009;28;20368;-35
2022/07/08 03:11:08;;;;;;;3.83;1.60;;;13.60;99.90;;;;;;4972026;28;20034;-33
2022/07/08 03:13:37;;;;;;;2.58;1.90;;;13.50;99.90;;;;;;4971049;28;20055;-33
2022/07/08 03:16:03;;;;;;;4.10;2.15;;;13.60;99.90;;;;;;4971830;28;20126;-34
2022/07/08 03:18:30;;;;;;;2.53;1.30;;;13.50;99.90;;;;;;4971620;28;20045;-33
2022/07/08 03:20:56;;;;;;;2.90;1.45;;;13.50;99.90;;;;;;4969695;28;20551;-35
2022/07/08 03:23:22;;;;;;;3.22;2.10;;;13.50;99.90;;;;;;4968225;28;20045;-35
2022/07/08 03:25:48;;;;;;;4.13;1.48;;;13.50;99.90;;;;;;4969545;28;20500;-33
2022/07/08 03:28:14;;;;;;;3.97;1.70;;;13.50;99.90;;;;;;4973745;28;20035;-34
2022/07/08 03:30:40;;;;;;;3.08;1.50;;;13.50;99.90;;;;;;4970932;28;20049;-34
2022/07/08 03:33:05;;;;;;;5.45;1.40;;;13.40;99.90;;;;;;4971368;28;20039;-33
2022/07/08 03:35:31;;;;;;;2.20;1.52;;;13.40;99.90;;;;;;4971588;28;20045;-34
2022/07/08 03:37:57;;;;;;;5.47;1.75;;;13.40;99.90;;;;;;4971099;28;20461;-34
2022/07/08 03:43:06;;;;;;;3.35;1.50;;;13.50;99.90;;;;;;4970463;28;20093;-35
2022/07/08 03:45:32;;;;;;;1.63;1.27;;;13.50;99.90;;;;;;4972645;28;20046;-33
2022/07/08 03:48:00;;;;;;;4.65;1.67;;;13.50;99.90;;;;;;4970966;28;20194;-33
2022/07/08 03:50:26;;;;;;;3.40;1.70;;;13.50;99.90;;;;;;4967485;28;20042;-33
2022/07/08 03:52:52;;;;;;;5.03;1.70;;;13.40;99.90;;;;;;4969912;28;20030;-32
2022/07/08 03:55:17;;;;;;;4.50;1.30;;;13.40;99.90;;;;;;4971268;28;20539;-33
2022/07/08 03:57:43;;;;;;;3.40;1.50;;;13.40;99.90;;;;;;4969354;28;20035;-36
2022/07/08 04:00:09;;;;;;;2.88;1.42;;;13.30;99.90;;;;;;4970901;28;20031;-33
2022/07/08 04:02:35;;;;;;;7.07;1.52;;;13.30;99.90;;;;;;4970548;28;20038;-33
2022/07/08 04:05:01;;;;;;;2.55;1.55;;;13.10;99.90;;;;;;4970898;28;20038;-33
2022/07/08 04:07:27;;;;;;;3.00;1.92;;;13.00;99.90;;;;;;4970301;28;20392;-34
2022/07/08 04:09:52;;;;;;;5.40;1.48;;;13.10;99.90;;;;;;4971038;28;20042;-33
2022/07/08 04:12:18;;;;;;;4.07;1.50;;;13.00;99.90;;;;;;4970595;28;20034;-35
2022/07/08 04:14:43;;;;;;;5.82;1.50;;;13.00;99.90;;;;;;4969139;28;20130;-33
2022/07/08 04:17:10;;;;;;;2.83;1.33;;;13.00;99.90;;;;;;4970273;28;20477;-34
2022/07/08 04:19:35;;;;;;;1.85;1.60;;;13.10;99.90;;;;;;4970762;28;20023;-33
2022/07/08 04:22:01;;;;;;;2.70;1.38;;;13.20;99.90;;;;;;4970551;28;20085;-34
2022/07/08 04:24:27;;;;;;;3.75;1.50;;;13.20;99.90;;;;;;4971247;28;20066;-32
2022/07/08 04:26:52;;;;;;;3.35;1.27;;;13.20;99.90;;;;;;4970192;28;20038;-33
2022/07/08 04:29:18;;;;;;;4.05;1.40;;;13.30;99.90;;;;;;4970699;28;20034;-35
2022/07/08 04:31:44;;;;;;;8.43;1.70;;;13.40;99.90;;;;;;4969863;28;20069;-33
2022/07/08 04:34:09;;;;;;;2.05;1.17;;;13.50;99.90;;;;;;4972105;28;20115;-34
2022/07/08 04:36:35;;;;;;;6.20;1.50;;;13.50;99.90;;;;;;4972544;28;20031;-33
2022/07/08 04:39:00;;;;;;;2.72;1.27;;;13.50;99.90;;;;;;4968901;28;20034;-33
2022/07/08 04:41:26;;;;;;;5.43;1.73;;;13.50;99.90;;;;;;4970824;28;20457;-36
2022/07/08 04:43:52;;;;;;;7.47;1.65;;;13.50;99.90;;;;;;4969849;28;20073;-33
2022/07/08 04:46:17;;;;;;;2.92;1.30;;;13.50;99.90;;;;;;4970258;28;20489;-34
2022/07/08 04:48:43;;;;;;;3.95;1.25;;;13.60;99.90;;;;;;4969505;28;20356;-33
2022/07/08 04:51:08;;;;;;;1.77;1.20;;;13.60;99.90;;;;;;4950814;28;20039;-33
2022/07/08 04:53:34;;;;;;;2.92;1.40;;;13.70;99.90;;;;;;4970309;28;20027;-34
2022/07/08 04:56:00;;;;;;;3.38;1.38;;;13.80;99.90;;;;;;4970986;28;20027;-33
2022/07/08 04:58:25;;;;;;;2.75;1.45;;;13.80;99.90;;;;;;4968359;28;20114;-33
2022/07/08 05:00:51;;;;;;;3.80;1.42;;;13.90;99.90;;;;;;4969923;28;20053;-33
2022/07/08 05:03:17;;;;;;;3.20;1.30;;;14.00;99.90;;;;;;4970353;28;20031;-35
2022/07/08 05:05:42;;;;;;;2.17;1.30;;;14.10;99.90;;;;;;4970032;28;20030;-34
2022/07/08 05:08:08;;;;;;;4.13;1.30;;;14.30;99.90;;;;;;4970414;28;20026;-34
2022/07/08 05:10:33;;;;;;;3.60;1.40;;;14.40;99.90;;;;;;4970476;28;20101;-33
2022/07/08 05:12:59;;;;;;;3.05;1.35;;;14.50;99.90;;;;;;4969355;28;20042;-33
2022/07/08 05:15:26;;;;;;;3.42;1.45;;;14.60;99.90;;;;;;4969586;28;20603;-35
2022/07/08 05:17:52;;;;;;;4.47;1.30;;;14.70;99.90;;;;;;4969088;28;20050;-33
2022/07/08 05:20:19;;;;;;;6.63;1.70;;;14.70;98.90;;;;;;4968429;28;20036;-34
2022/07/08 05:22:44;;;;;;;2.03;1.45;;;14.70;99.90;;;;;;4968782;28;20084;-34
2022/07/08 05:25:11;;;;;;;5.80;1.50;;;14.70;99.80;;;;;;4969297;28;20023;-33
2022/07/08 05:27:37;;;;;;;3.28;1.63;;;14.70;98.60;;;;;;4971822;28;20027;-33
2022/07/08 05:30:05;;;;;;;3.72;1.45;;;14.80;98.60;;;;;;4970552;28;20460;-33
2022/07/08 05:32:31;;;;;;;4.20;1.15;;;14.90;97.60;;;;;;4972611;28;20546;-32
2022/07/08 05:34:57;;;;;;;4.10;1.33;;;14.90;98.20;;;;;;4972424;28;20067;-33
2022/07/08 05:37:22;;;;;;;5.57;1.50;;;15.00;97.20;;;;;;4973040;28;20035;-33
2022/07/08 05:39:48;;;;;;;3.53;1.38;;;15.00;97.70;;;;;;4972555;28;20391;-35
2022/07/08 05:42:13;;;;;;;1.55;1.40;;;15.10;96.70;;;;;;4971157;28;20030;-34
2022/07/08 05:44:39;;;;;;;2.60;1.20;;;15.10;96.50;;;;;;4976757;28;20114;-33
2022/07/08 05:47:09;;;;;;;2.80;1.15;;;15.20;94.60;;;;;;4973614;28;20058;-35
2022/07/08 05:49:36;;;;;;;2.20;1.20;;;15.30;94.20;;;;;;4972527;28;20386;-32
2022/07/08 05:52:03;;;;;;;2.42;1.20;;;15.30;93.80;;;;;;4970421;28;20039;-36
2022/07/08 05:54:29;;;;;;;4.55;1.42;;;15.50;93.50;;;;;;4972880;28;20034;-34
2022/07/08 05:56:55;;;;;;;2.22;1.13;;;15.20;92.20;;;;;;4972367;28;20030;-32
2022/07/08 05:59:20;;;;;;;3.65;1.23;;;15.40;92.80;;;;;;4972620;28;20154;-33
2022/07/08 06:01:46;;;;;;;2.17;1.30;;;15.50;92.50;;;;;;4954409;28;20050;-32
2022/07/08 06:04:11;;;;;;;2.67;1.20;;;15.60;91.90;;;;;;4971961;28;20027;-35
2022/07/08 06:06:37;;;;;;;3.40;1.23;;;15.60;90.90;;;;;;4975187;28;20026;-34
2022/07/08 06:09:03;;;;;;;3.00;1.10;;;15.60;91.30;;;;;;4972693;28;20037;-33
2022/07/08 06:11:28;;;;;;;2.55;1.23;;;15.70;91.00;;;;;;4973902;28;20038;-33
2022/07/08 06:13:54;;;;;;;3.85;1.20;;;15.70;91.40;;;;;;4972848;28;20034;-33
2022/07/08 06:16:20;;;;;;;2.88;1.63;;;15.50;91.50;;;;;;4971977;28;20105;-32
2022/07/08 06:18:46;;;;;;;3.13;1.10;;;15.70;91.30;;;;;;4969359;28;20023;-33
2022/07/08 06:21:11;;;;;;;3.88;1.27;;;15.80;90.10;;;;;;4972025;28;20106;-33
2022/07/08 06:23:37;;;;;;;5.57;1.15;;;16.00;90.30;;;;;;4975031;28;20073;-34
2022/07/08 06:26:03;;;;;;;2.65;1.20;;;16.00;90.20;;;;;;4972077;28;20042;-33
2022/07/08 06:28:29;;;;;;;3.30;1.23;;;16.20;90.60;;;;;;4974507;28;20034;-33
2022/07/08 06:30:54;;;;;;;2.03;1.00;;;15.80;91.60;;;;;;4971613;28;20121;-33
2022/07/08 06:33:20;;;;;;;3.10;1.10;;;15.60;91.40;;;;;;4972584;28;20034;-33
2022/07/08 06:35:46;;;;;;;3.95;1.30;;;15.50;92.10;;;;;;4971738;28;20436;-35
2022/07/08 06:38:12;;;;;;;4.53;1.20;;;15.70;88.80;;;;;;4974239;28;20026;-33
2022/07/08 06:40:38;;;;;;;1.65;1.10;;;15.80;91.20;;;;;;4971687;28;20110;-33
2022/07/08 06:43:03;;;;;;;0.80;0.80;;;16.20;90.30;;;;;;4974605;28;20496;-32
2022/07/08 06:45:32;;;;;;;5.70;1.30;;;16.40;80.60;;;;;;4971726;28;20031;-34
2022/07/08 06:48:01;;;;;;;1.98;1.20;;;16.10;83.20;;;;;;4972360;28;20039;-33
2022/07/08 06:50:27;;;;;;;6.75;1.20;;;15.80;86.30;;;;;;4968334;28;20102;-33
2022/07/08 06:52:53;;;;;;;1.55;0.95;;;15.40;86.90;;;;;;4974025;28;20102;-33
2022/07/08 06:55:19;;;;;;;3.28;1.10;;;15.30;90.20;;;;;;4971534;28;20106;-33
2022/07/08 06:57:45;;;;;;;1.90;1.80;;;15.40;90.50;;;;;;4973673;28;20065;-34
2022/07/08 07:00:11;;;;;;;5.47;1.30;;;15.50;90.80;;;;;;4971202;28;20599;-34
2022/07/08 07:02:37;;;;;;;3.30;2.08;;;15.60;91.00;;;;;;4972953;28;20038;-34
2022/07/08 07:05:03;;;;;;;1.98;1.20;;;15.60;90.70;;;;;;4971613;28;20717;-33
2022/07/08 07:07:28;;;;;;;3.47;1.40;;;15.70;91.10;;;;;;4973488;28;20086;-33
2022/07/08 07:09:55;;;;;;;2.88;1.10;;;15.80;90.40;;;;;;4971428;28;20039;-32
2022/07/08 07:12:20;;;;;;;7.90;1.20;;;15.80;89.20;;;;;;4969505;28;20396;-32
2022/07/08 07:14:46;;;;;;;4.25;1.70;;;15.90;90.70;;;;;;4971296;28;20106;-33
2022/07/08 07:17:12;;;;;;;3.45;1.55;;;15.90;90.80;;;;;;4971506;28;20089;-34
2022/07/08 07:19:38;;;;;;;2.42;1.20;;;15.90;88.70;;;;;;4953805;28;20019;-35
2022/07/08 07:22:04;;;;;;;3.50;1.40;;;16.00;89.60;;;;;;4971452;28;20039;-32
2022/07/08 07:24:30;;;;;;;2.10;1.30;;;16.00;90.30;;;;;;4971152;28;20034;-33
2022/07/08 07:26:55;;;;;;;5.05;1.20;;;16.00;90.80;;;;;;4976886;28;20026;-32
2022/07/08 07:29:21;;;;;;;5.15;1.30;;;15.90;89.50;;;;;;4971576;28;20031;-33
2022/07/08 07:31:47;;;;;;;1.52;1.20;;;15.80;89.90;;;;;;4970424;28;20046;-33
2022/07/08 07:34:12;;;;;;;2.70;1.15;;;15.70;91.80;;;;;;4970727;28;20038;-33
2022/07/08 07:36:38;;;;;;;5.88;1.85;;;15.80;90.70;;;;;;4970570;28;20030;-33
2022/07/08 07:39:04;;;;;;;4.25;1.42;;;15.80;90.60;;;;;;4971003;28;20109;-33
2022/07/08 07:41:29;;;;;;;6.03;1.30;;;15.80;90.90;;;;;;4970245;28;20069;-33
2022/07/08 07:43:55;;;;;;;2.63;1.30;;;15.90;91.10;;;;;;4971231;28;20481;-35
2022/07/08 07:46:20;;;;;;;3.55;1.27;;;15.80;90.50;;;;;;4972113;28;20058;-34
2022/07/08 07:48:46;;;;;;;3.53;1.50;;;16.00;93.30;;;;;;4970717;28;20030;-34
2022/07/08 07:51:12;;;;;;;5.03;1.40;;;16.10;88.50;;;;;;4969924;28;20106;-33
2022/07/08 07:53:38;;;;;;;2.65;1.42;;;16.10;89.50;;;;;;4952462;28;20061;-33
2022/07/08 07:56:04;;;;;;;3.00;1.70;;;16.10;91.10;;;;;;4970029;28;20035;-35
2022/07/08 07:58:29;;;;;;;2.92;1.63;;;16.10;90.30;;;;;;4968216;28;20039;-33
2022/07/08 08:00:55;;;;;;;2.00;1.40;;;16.00;86.50;;;;;;4969978;28;20045;-33
2022/07/08 08:03:21;;;;;;;2.20;1.50;;;16.00;85.80;;;;;;4968537;28;20019;-33
2022/07/08 08:05:46;;;;;;;4.50;1.60;;;16.00;87.80;;;;;;4969694;28;20022;-33
2022/07/08 08:08:12;;;;;;;2.83;1.67;;;16.10;92.00;;;;;;4969929;28;20081;-32
2022/07/08 08:10:38;;;;;;;2.67;1.40;;;16.20;90.80;;;;;;4972363;28;20030;-34
2022/07/08 08:13:04;;;;;;;1.20;1.10;;;16.40;84.50;;;;;;4970375;28;20534;-34
2022/07/08 08:15:30;;;;;;;5.28;1.60;;;16.60;78.20;;;;;;4972668;28;20123;-34
2022/07/08 08:17:57;;;;;;;5.88;1.40;;;16.70;86.40;;;;;;4970099;28;20031;-34
2022/07/08 08:20:27;;;;;;;3.67;1.40;;;16.80;90.70;;;;;;4972419;28;20026;-33
2022/07/08 08:22:54;;;;;;;4.00;1.40;;;16.70;84.20;;;;;;4970380;28;20027;-34
2022/07/08 08:25:20;;;;;;;2.78;1.50;;;16.70;81.90;;;;;;4972625;28;20033;-33
2022/07/08 08:27:46;;;;;;;2.67;1.25;;;16.80;90.00;;;;;;4970045;28;20039;-33
2022/07/08 08:30:12;;;;;;;2.83;1.30;;;16.80;88.40;;;;;;4972124;28;20472;-33
2022/07/08 08:32:38;;;;;;;2.42;1.40;;;17.00;89.50;;;;;;4969345;28;20037;-34
2022/07/08 08:35:05;;;;;;;2.72;1.48;;;17.60;87.50;;;;;;4971522;28;20480;-34
2022/07/08 08:37:30;;;;;;;3.33;1.33;;;17.70;84.30;;;;;;4969170;28;20531;-34
2022/07/08 08:40:00;;;;;;;4.22;1.70;;;17.70;77.00;;;;;;4973896;28;20019;-33
2022/07/08 08:42:27;;;;;;;4.07;1.45;;;17.60;72.10;;;;;;4967651;28;20031;-33
2022/07/08 08:44:53;;;;;;;1.75;1.30;;;17.30;74.00;;;;;;4971476;28;20054;-34
2022/07/08 08:47:25;;;;;;;4.07;1.20;;;17.30;71.80;;;;;;4968982;28;20031;-33
2022/07/08 08:49:53;;;;;;;1.95;1.40;;;17.20;77.70;;;;;;4972381;28;20432;-33
2022/07/08 08:52:19;;;;;;;;;;;17.10;75.40;;;;;;4969986;28;20033;-36
2022/07/08 08:54:46;;;;;;;3.88;1.42;;;17.00;80.80;;;;;;4971951;28;19913;-36
2022/07/08 08:57:12;;;;;;;1.83;1.27;;;17.00;79.60;;;;;;4969688;28;20030;-33
2022/07/08 08:59:38;;;;;;;4.47;1.50;;;17.00;73.80;;;;;;4971770;28;20273;-34
2022/07/08 09:02:04;;;;;;;4.75;1.65;;;16.90;72.60;;;;;;4969243;28;20091;-33
2022/07/08 09:04:33;;;;;;;2.70;1.13;;;16.80;73.90;;;;;;4973889;28;20029;-33
2022/07/08 09:07:00;;;;;;;3.33;1.20;;;16.70;75.20;;;;;;4973038;28;20376;-33
2022/07/08 09:09:26;;;;;;;2.83;1.17;;;16.60;77.00;;;;;;4975607;28;20035;-36
2022/07/08 09:11:52;;;;;;;1.50;1.13;;;16.60;72.70;;;;;;4955657;28;20038;-33
2022/07/08 09:14:22;;;;;;;1.85;1.33;;;16.80;71.60;;;;;;4973185;28;20151;-36
2022/07/08 09:17:26;;;;;;;1.77;1.40;;;17.00;73.70;;;;;;4973972;28;20357;-33
2022/07/08 09:19:52;;;;;;;2.33;1.10;;;17.40;68.60;;;;;;4875869;29;20037;-33
2022/07/08 09:22:21;;;;;;;1.73;1.30;;;17.50;64.10;;;;;;4875386;29;20051;-33
2022/07/08 09:24:46;;;;;;;3.95;1.65;;;17.30;63.40;;;;;;4923020;28;20042;-34
2022/07/08 09:27:13;;;;;;;4.40;1.50;;;16.90;64.90;;;;;;4977242;28;20543;-33
2022/07/08 09:29:55;;;;;;;2.05;1.25;;;17.00;65.50;;;;;;4973535;28;20026;-34
2022/07/08 09:32:20;;;;;;;2.60;1.40;;;17.10;68.90;;;;;;4972397;28;20500;-34
2022/07/08 09:34:46;;;;;;;1.73;1.52;;;17.10;72.70;;;;;;4972609;28;20118;-33
2022/07/08 09:37:15;;;;;;;2.35;1.40;;;17.20;65.50;;;;;;4955374;28;20045;-33
2022/07/08 09:39:42;;;;;;;1.95;1.45;;;17.20;67.30;;;;;;4955136;28;20464;-34
2022/07/08 09:42:09;;;;;;;4.47;1.40;;;17.10;65.40;;;;;;4972161;28;20106;-35
2022/07/08 09:44:36;;;;;;;3.25;1.33;;;17.10;69.90;;;;;;4972956;28;20122;-35
2022/07/08 09:47:11;;;;;;;3.55;1.30;;;17.20;70.20;;;;;;4970677;28;20034;-35
2022/07/08 09:49:41;;;;;;;3.28;1.60;;;17.30;67.00;;;;;;4972669;28;20031;-33
2022/07/08 09:52:07;;;;;;;2.65;1.30;;;17.40;67.70;;;;;;4964759;28;20868;-32
2022/07/08 09:54:33;;;;;;;2.58;1.48;;;17.50;67.90;;;;;;4977784;28;20035;-33
2022/07/08 09:57:00;;;;;;;3.22;1.48;;;17.60;68.30;;;;;;4972292;28;20081;-33
2022/07/08 09:59:26;;;;;;;2.65;1.30;;;17.70;66.80;;;;;;4973100;28;20117;-33
2022/07/08 10:01:52;;;;;;;1.40;1.02;;;17.60;63.70;;;;;;4973102;28;20038;-33
2022/07/08 10:04:25;;;;;;;2.35;1.40;;;17.70;65.50;;;;;;4972252;28;20031;-33
2022/07/08 10:06:51;;;;;;;6.35;1.38;;;17.70;61.00;;;;;;4975884;28;20491;-34
2022/07/08 10:09:17;;;;;;;2.25;1.35;;;17.70;63.50;;;;;;4971663;28;20391;-33
2022/07/08 10:11:44;;;;;;;1.33;1.20;;;17.70;64.70;;;;;;4977142;28;20404;-33
2022/07/08 10:14:10;;;;;;;3.20;1.30;;;17.80;68.00;;;;;;4972273;28;20484;-33
2022/07/08 10:16:38;;;;;;;1.90;1.30;;;17.90;63.10;;;;;;4970072;28;20137;-33
2022/07/08 10:19:08;;;;;;;2.67;1.42;;;18.00;63.50;;;;;;4972054;28;20111;-33
2022/07/08 10:21:36;;;;;;;1.23;1.05;;;18.20;59.90;;;;;;4975771;28;20077;-33
2022/07/08 10:24:03;;;;;;;3.72;1.23;;;18.00;61.60;;;;;;4955410;28;20082;-33
2022/07/08 10:26:35;;;;;;;3.13;1.20;;;17.70;57.80;;;;;;4976017;28;20023;-33
2022/07/08 10:29:05;;;;;;;3.72;1.20;;;17.60;65.00;;;;;;4972507;28;20085;-33
2022/07/08 10:31:47;;;;;;;4.65;1.50;;;17.70;62.90;;;;;;4974770;28;20030;-33
2022/07/08 10:34:18;;;;;;;2.08;1.33;;;17.40;71.50;;;;;;4971588;28;20015;-33
2022/07/08 10:36:49;;;;;;;3.00;1.10;;;17.40;67.70;;;;;;4968132;28;20122;-32
2022/07/08 10:39:26;;;;;;;2.25;1.10;;;17.60;71.70;;;;;;4971782;28;20034;-33
2022/07/08 10:42:01;;;;;;;2.58;1.15;;;17.70;69.50;;;;;;4970939;28;20026;-34
2022/07/08 10:44:44;;;;;;;2.53;1.35;;;17.60;75.00;;;;;;4971615;28;20042;-35
2022/07/08 10:47:15;;;;;;;5.18;1.45;;;17.40;69.40;;;;;;4974047;28;20054;-33
2022/07/08 10:49:47;;;;;;;3.65;1.27;;;17.50;70.30;;;;;;4971172;28;20030;-35
2022/07/08 10:52:14;;;;;;;1.60;1.50;;;17.40;69.80;;;;;;4972083;28;20563;-32
2022/07/08 10:54:40;;;;;;;3.00;1.40;;;17.50;69.50;;;;;;4971413;28;20089;-34
2022/07/08 10:57:08;;;;;;;3.83;1.65;;;17.60;73.80;;;;;;4972358;28;20555;-33
2022/07/08 10:59:35;;;;;;;3.63;1.38;;;17.60;68.70;;;;;;4971281;28;20449;-33
2022/07/08 11:02:11;;;;;;;3.05;1.30;;;17.50;72.20;;;;;;4971194;28;20511;-33
2022/07/08 11:04:37;;;;;;;2.97;1.52;;;17.30;67.80;;;;;;4970496;28;20023;-33
2022/07/08 11:07:20;;;;;;;1.60;1.30;;;17.20;67.50;;;;;;4972711;28;20023;-34
2022/07/08 11:09:50;;;;;;;1.58;1.25;;;17.30;66.60;;;;;;4970903;28;20029;-33
2022/07/08 11:12:21;;;;;;;6.82;1.40;;;17.40;69.80;;;;;;4971610;28;20518;-33
2022/07/08 11:14:49;;;;;;;2.30;1.10;;;17.60;69.60;;;;;;4970306;28;20038;-34
2022/07/08 11:17:23;;;;;;;3.95;1.20;;;18.00;68.10;;;;;;4971491;28;20038;-35
2022/07/08 11:19:51;;;;;;;3.30;1.20;;;18.20;61.20;;;;;;4972423;28;20522;-36
2022/07/08 11:22:18;;;;;;;2.03;1.27;;;18.30;64.20;;;;;;4970699;28;20035;-34
2022/07/08 11:24:45;;;;;;;1.75;1.20;;;18.40;60.80;;;;;;4970524;28;20053;-33
2022/07/08 11:27:11;;;;;;;2.37;1.40;;;18.40;60.00;;;;;;4968820;28;20054;-33
2022/07/08 11:29:37;;;;;;;1.75;1.20;;;17.90;57.00;;;;;;4970613;28;20396;-33
2022/07/08 11:32:04;;;;;;;2.03;1.17;;;17.80;59.90;;;;;;4967509;28;20035;-34
2022/07/08 11:34:31;;;;;;;4.45;1.42;;;17.60;60.60;;;;;;4970543;28;20034;-34
2022/07/08 11:37:01;;;;;;;2.22;1.20;;;17.50;61.40;;;;;;4970177;28;20476;-33
2022/07/08 11:39:27;;;;;;;1.92;1.83;;;17.70;63.50;;;;;;4970966;28;20027;-35
2022/07/08 11:41:54;;;;;;;1.63;1.10;;;17.70;65.60;;;;;;4966664;28;20030;-33
2022/07/08 11:44:21;;;;;;;2.08;1.10;;;17.80;63.20;;;;;;4970512;28;20026;-33
2022/07/08 11:46:48;;;;;;;2.13;1.10;;;18.10;65.70;;;;;;4969724;28;20062;-35
2022/07/08 11:49:15;;;;;;;2.85;1.20;;;18.40;58.10;;;;;;4969833;28;20284;-33
2022/07/08 11:51:45;;;;;;;2.88;1.15;;;18.50;61.50;;;;;;4970609;28;20145;-33
2022/07/08 11:54:11;;;;;;;3.83;1.40;;;18.70;57.20;;;;;;4973448;28;20038;-32
2022/07/08 11:56:37;;;;;;;3.03;1.17;;;18.60;60.30;;;;;;4970609;28;20031;-33
2022/07/08 11:59:03;;;;;;;3.67;1.55;;;18.80;59.70;;;;;;4968971;28;20707;-33
2022/07/08 12:01:30;;;;;;;2.33;1.30;;;18.50;59.30;;;;;;4970149;28;20392;-33
2022/07/08 12:03:57;;;;;;;1.55;1.20;;;18.20;63.80;;;;;;4969249;28;20030;-33
2022/07/08 12:06:25;;;;;;;2.95;1.20;;;18.40;62.20;;;;;;4969665;28;20030;-33
2022/07/08 12:08:51;;;;;;;3.27;1.30;;;18.20;64.20;;;;;;4970370;28;20038;-33
2022/07/08 12:11:18;;;;;;;2.40;1.30;;;18.20;65.70;;;;;;4969559;28;20023;-33
2022/07/08 12:13:49;;;;;;;3.38;1.17;;;18.40;63.00;;;;;;4970356;28;20030;-33
2022/07/08 12:16:33;;;;;;;3.15;1.20;;;18.50;57.30;;;;;;4969554;28;20074;-35
2022/07/08 12:19:00;;;;;;;2.38;1.10;;;18.50;60.70;;;;;;4970516;28;20034;-34
2022/07/08 12:21:26;;;;;;;5.70;1.30;;;18.30;60.40;;;;;;4969456;28;20038;-34
2022/07/08 12:23:59;;;;;;;1.77;1.20;;;18.10;61.50;;;;;;4954852;28;20062;-33
2022/07/08 12:26:25;;;;;;;2.88;1.35;;;18.10;61.40;;;;;;4972934;28;20038;-33
2022/07/08 12:28:51;;;;;;;2.63;1.23;;;18.10;63.00;;;;;;4977536;28;20058;-33
2022/07/08 12:31:41;;;;;;;3.00;1.20;;;18.20;60.90;;;;;;4969051;28;20045;-34
2022/07/08 12:34:08;;;;;;;5.03;1.35;;;18.30;60.80;;;;;;4969306;28;20031;-32
2022/07/08 12:36:34;;;;;;;6.63;1.40;;;18.30;57.60;;;;;;4969770;28;20027;-34
2022/07/08 12:39:14;;;;;;;3.35;1.23;;;18.40;57.90;;;;;;4972354;28;20062;-33
2022/07/08 12:41:40;;;;;;;2.58;1.08;;;18.60;60.80;;;;;;4968429;28;20388;-34
2022/07/08 12:44:42;;;;;;;4.05;1.20;;;18.70;62.00;;;;;;4972586;28;20027;-35
2022/07/08 12:47:11;;;;;;;2.40;1.20;;;18.90;58.40;;;;;;4918052;28;20039;-33
2022/07/08 12:49:42;;;;;;;2.95;1.45;;;18.50;60.00;;;;;;4971552;28;20035;-33